Twentynine Palms (Self) Airport
KNXP : now visible

Airfield :











YOU CAN JOIN US ON...

 
LOGIN :

Register | Disclaimer

   EN    FR    IT 

 









Legend :    VFR   Marginal VFR   IFR   Intensive IFR   Very Intensive IFR
Visi :
Ceiling :
>= 8 km
>= 3000ft
5 to 8 km
1000 to 3000 ft
1500m to 5 km
500 to 1000 ft
800 to 1500m
200 to 500 ft
< 800m
< 200 ft
Symbols :   Thunderstorms  Fog  Heavy snow  Heavy precipitations  Wind > 20 kt






- Airport Elevation : 2051 ft


KNXP - Twentynine Palms (Self)

CURRENT METAR :
  • 241456Z AUTO 30006KT 9SM CLR 23/07 A3004 RMK AO2 SLP139 T02280067 51011

EXPIRED METARs :
  • 241356Z AUTO 04004KT 8SM CLR 21/07 A3004 RMK AO2 SLP137 T02110067
  • 241256Z AUTO 30006KT 10SM CLR 22/07 A3002 RMK AO2 SLP131 T02170067

TAF TAF KNXP
Valid from the 24 at 09:00 until the 25 at 09:00 UTC


2409/2509 VRB05KT 9999 SKC QNH3001INS
FM241730 11010KT 9999 SKC QNH3002INS
TEMPO 2418/2421 11015G25KT
FM240030 16008KT 9999 SKC QNH3003INS T22/2414Z T33/2420Z
KZLA FIR / North America



MET'MAP, your aeronautical weather chart ! - Copyright ORBIFLY December 2007 - Disclaimer

ORBIFLY MET'MAP TEAM :

Programming & Development : Alexandra Zaïnal
Concept & original design : Baudouin d'Aumeries
Assistance for programming : Marc-Olivier Méhu
Technical & hardware support : Manuel Goepfert

Contact : metmap@orbifly.com




SOURCES & CREDITS :

   NOAA       Earth
Advisory